createdAt,value
2023-03-22T00:00:25.868Z,82.21
2023-03-22T00:04:25.992Z,75.61
2023-03-22T00:08:25.926Z,83.77
2023-03-22T00:12:25.993Z,68.58
2023-03-22T00:16:26.155Z,66.26
2023-03-22T00:20:26.033Z,84.44
2023-03-22T00:24:26.926Z,69.76
2023-03-22T00:28:26.117Z,75.31
2023-03-22T00:32:27.401Z,67.77
2023-03-22T00:36:26.130Z,73.36
2023-03-22T00:40:26.184Z,89.48
2023-03-22T00:44:26.215Z,84.80
2023-03-22T00:48:26.457Z,79.67
2023-03-22T00:52:26.262Z,77.09
2023-03-22T00:56:26.312Z,83.55
2023-03-22T01:00:26.354Z,83.50
2023-03-22T01:04:26.894Z,80.59
2023-03-22T01:08:26.400Z,79.49
2023-03-22T01:12:26.427Z,78.73
2023-03-22T01:16:27.002Z,76.40
2023-03-22T01:20:26.960Z,76.67
2023-03-22T01:24:26.309Z,81.68
2023-03-22T01:28:27.291Z,78.66
2023-03-22T01:32:26.286Z,77.23
2023-03-22T01:36:26.271Z,77.29
2023-03-22T01:40:26.433Z,81.72
2023-03-22T01:44:26.459Z,69.80
2023-03-22T01:48:26.178Z,69.00
2023-03-22T01:52:26.248Z,70.30
2023-03-22T01:56:26.123Z,79.52
2023-03-22T02:00:26.300Z,73.36
2023-03-22T02:04:26.277Z,76.24
2023-03-22T02:08:26.451Z,76.29
2023-03-22T02:12:27.548Z,73.72
2023-03-22T02:16:26.443Z,73.38
2023-03-22T02:20:26.940Z,74.57
2023-03-22T02:24:26.439Z,75.82
2023-03-22T02:28:26.401Z,68.70
2023-03-22T02:32:26.454Z,68.41
2023-03-22T02:36:26.353Z,74.64
2023-03-22T02:40:26.426Z,68.80
2023-03-22T02:44:26.354Z,69.53
2023-03-22T02:48:26.372Z,72.82
2023-03-22T02:52:26.298Z,78.33
2023-03-22T02:56:26.481Z,74.39
2023-03-22T03:00:27.013Z,75.16
2023-03-22T03:04:26.972Z,69.75
2023-03-22T03:08:26.436Z,68.98
2023-03-22T03:12:26.420Z,67.62
2023-03-22T03:16:26.562Z,68.97
2023-03-22T03:20:27.475Z,63.57
2023-03-22T03:24:27.449Z,69.77
2023-03-22T03:28:27.434Z,60.19
2023-03-22T03:32:26.677Z,61.01
2023-03-22T03:36:26.745Z,59.97
2023-03-22T03:40:26.821Z,63.56
2023-03-22T03:44:26.796Z,60.26
2023-03-22T03:48:26.871Z,63.43
2023-03-22T03:52:26.926Z,69.04
2023-03-22T03:56:26.962Z,67.91
2023-03-22T04:00:27.093Z,74.81
2023-03-22T04:04:27.293Z,67.68
2023-03-22T04:08:27.288Z,62.97
2023-03-22T04:12:27.363Z,62.02
2023-03-22T04:16:27.586Z,58.72
2023-03-22T04:20:28.094Z,58.12
2023-03-22T04:24:27.728Z,54.32
2023-03-22T04:28:27.931Z,56.43
2023-03-22T04:32:28.088Z,52.39
2023-03-22T04:36:27.971Z,57.27
2023-03-22T04:40:28.046Z,60.69
2023-03-22T04:44:28.143Z,60.50
2023-03-22T04:48:29.020Z,64.88
2023-03-22T04:52:28.355Z,51.72
2023-03-22T04:56:28.356Z,63.00
2023-03-22T05:00:28.461Z,57.74
2023-03-22T05:04:28.577Z,54.33
2023-03-22T05:08:28.645Z,52.00
2023-03-22T05:12:28.718Z,48.64
2023-03-22T05:16:29.085Z,53.35
2023-03-22T05:20:28.919Z,53.35
2023-03-22T05:24:28.978Z,63.36
2023-03-22T05:28:29.027Z,56.43
2023-03-22T05:32:30.024Z,52.68
2023-03-22T05:36:29.136Z,46.27
2023-03-22T05:40:29.178Z,51.47
2023-03-22T05:44:29.234Z,50.63
2023-03-22T05:48:29.601Z,56.22
2023-03-22T05:52:29.508Z,51.23
2023-03-22T05:56:29.583Z,52.06
2023-03-22T06:00:30.138Z,51.87
2023-03-22T06:04:29.723Z,51.41
2023-03-22T06:08:29.686Z,45.04
2023-03-22T06:12:30.283Z,54.11
2023-03-22T06:16:29.777Z,54.18
2023-03-22T06:20:29.594Z,45.67
2023-03-22T06:24:34.183Z,48.10
2023-03-22T06:28:29.557Z,47.91
2023-03-22T06:32:29.667Z,51.38
2023-03-22T06:36:29.492Z,35.39
2023-03-22T06:40:30.118Z,26.29
2023-03-22T06:44:29.614Z,38.18
2023-03-22T06:48:30.540Z,41.17
2023-03-22T06:52:29.909Z,40.07
2023-03-22T06:56:30.119Z,35.55
2023-03-22T07:00:29.956Z,37.57
2023-03-22T07:04:30.055Z,43.40
2023-03-22T07:08:30.103Z,48.55
2023-03-22T07:12:30.171Z,43.11
2023-03-22T07:16:30.217Z,46.15
2023-03-22T07:20:30.372Z,46.34
2023-03-22T07:24:30.313Z,38.47
2023-03-22T07:28:30.351Z,43.72
2023-03-22T07:32:30.410Z,40.45
2023-03-22T07:36:30.596Z,42.36
2023-03-22T07:40:30.417Z,40.66
2023-03-22T07:44:30.603Z,25.00
2023-03-22T07:48:30.640Z,25.41
2023-03-22T07:52:30.646Z,25.00
2023-03-22T07:56:30.673Z,48.55
2023-03-22T08:00:30.854Z,59.38
2023-03-22T08:04:30.891Z,64.58
2023-03-22T08:08:30.491Z,59.51
2023-03-22T08:12:30.638Z,55.52
2023-03-22T08:16:31.803Z,50.55
2023-03-22T08:20:30.499Z,44.47
2023-03-22T08:24:30.273Z,38.80
2023-03-22T08:28:44.602Z,44.98
2023-03-22T08:32:30.329Z,34.23
2023-03-22T08:36:30.320Z,36.41
2023-03-22T08:40:31.108Z,44.12
2023-03-22T08:44:30.330Z,49.90
2023-03-22T08:48:30.398Z,48.25
2023-03-22T08:52:33.157Z,37.05
2023-03-22T08:56:30.585Z,25.00
2023-03-22T09:00:45.769Z,25.00
2023-03-22T09:04:31.416Z,28.68
2023-03-22T09:08:30.570Z,36.74
2023-03-22T09:12:30.541Z,32.75
2023-03-22T09:16:30.823Z,33.12
2023-03-22T09:20:30.940Z,25.05
2023-03-22T09:24:31.124Z,48.65
2023-03-22T09:28:31.384Z,53.73
2023-03-22T09:32:31.497Z,64.87
2023-03-22T09:36:31.979Z,61.83
2023-03-22T09:40:31.455Z,72.71
2023-03-22T09:44:31.446Z,53.61
2023-03-22T09:48:31.611Z,64.50
2023-03-22T09:52:31.704Z,82.69
2023-03-22T09:56:31.818Z,105.09
2023-03-22T10:00:35.538Z,112.26
2023-03-22T10:08:51.224Z,25.00
2023-03-22T10:12:50.656Z,26.07
2023-03-22T10:16:50.554Z,25.47
2023-03-22T10:20:50.650Z,33.32
2023-03-22T10:24:50.516Z,45.85
2023-03-22T10:28:50.554Z,40.25
2023-03-22T10:32:57.545Z,30.44
2023-03-22T10:49:48.322Z,25.00
2023-03-22T10:53:47.658Z,25.00
2023-03-22T10:57:48.569Z,34.66
2023-03-22T11:01:48.331Z,30.33
2023-03-22T11:05:49.342Z,28.19
2023-03-22T11:09:49.027Z,36.90
2023-03-22T11:13:47.230Z,62.78
2023-03-22T11:17:47.099Z,53.18
2023-03-22T11:21:47.552Z,27.74
2023-03-22T11:25:47.136Z,25.94
2023-03-22T11:29:47.752Z,46.88
2023-03-22T11:33:51.892Z,84.16
2023-03-22T11:37:55.883Z,99.73
2023-03-22T11:41:47.221Z,108.73
2023-03-22T11:45:47.252Z,144.38
2023-03-22T11:49:47.592Z,153.50
2023-03-22T11:53:47.042Z,180.14
2023-03-22T11:57:46.949Z,195.43
2023-03-22T12:01:53.544Z,198.94
2023-03-22T12:05:46.991Z,206.27
2023-03-22T12:09:47.468Z,218.38
2023-03-22T12:13:46.825Z,221.00
2023-03-22T12:17:47.756Z,203.62
2023-03-22T12:21:46.757Z,226.55
2023-03-22T12:25:46.812Z,224.05
2023-03-22T12:29:46.762Z,216.84
2023-03-22T12:33:46.670Z,213.04
2023-03-22T12:37:52.398Z,212.26
2023-03-22T12:41:46.609Z,215.16
2023-03-22T12:45:46.581Z,213.42
2023-03-22T12:49:46.801Z,208.33
2023-03-22T12:53:46.461Z,208.11
2023-03-22T12:57:46.700Z,209.43
2023-03-22T13:01:46.480Z,210.25
2023-03-22T13:05:46.452Z,208.75
2023-03-22T13:09:46.416Z,211.57
2023-03-22T13:13:46.391Z,211.96
2023-03-22T13:17:46.362Z,210.67
2023-03-22T13:21:46.367Z,209.55
2023-03-22T13:25:46.428Z,210.36
2023-03-22T13:29:46.223Z,205.96
2023-03-22T13:33:51.059Z,207.03
2023-03-22T13:37:46.153Z,207.14
2023-03-22T13:41:46.169Z,171.56
2023-03-22T13:45:46.119Z,122.00
2023-03-22T13:49:46.074Z,56.82
2023-03-22T13:53:45.994Z,34.82
2023-03-22T13:57:47.077Z,32.75
2023-03-22T14:01:46.266Z,50.45
2023-03-22T14:05:46.326Z,59.28
2023-03-22T14:09:46.541Z,67.14
2023-03-22T14:13:46.624Z,75.60
2023-03-22T14:17:48.708Z,78.31
2023-03-22T14:21:46.768Z,83.51
2023-03-22T14:46:37.816Z,25.00
2023-03-22T14:50:37.692Z,28.43
2023-03-22T14:54:38.364Z,31.48
2023-03-22T14:58:37.566Z,29.33
2023-03-22T15:02:37.450Z,32.78
2023-03-22T15:06:37.453Z,36.31
2023-03-22T15:10:37.913Z,33.66
2023-03-22T15:14:37.461Z,37.26
2023-03-22T15:18:37.447Z,38.32
2023-03-22T15:22:37.551Z,39.09
2023-03-22T15:26:37.350Z,41.33
2023-03-22T15:30:37.339Z,39.61
2023-03-22T15:34:39.814Z,46.25
2023-03-22T15:38:43.278Z,41.52
2023-03-22T15:42:38.168Z,44.39
2023-03-22T15:46:37.131Z,44.08
2023-03-22T15:50:37.080Z,46.66
2023-03-22T15:54:37.147Z,45.65
2023-03-22T15:58:37.091Z,48.36
2023-03-22T16:02:37.025Z,47.81
2023-03-22T16:06:36.932Z,48.71
2023-03-22T16:10:37.092Z,50.86
2023-03-22T16:14:38.359Z,50.29
2023-03-22T16:18:36.948Z,53.45
2023-03-22T16:22:36.924Z,51.90
2023-03-22T16:26:36.961Z,52.77
2023-03-22T16:30:36.928Z,50.95
2023-03-22T16:34:36.895Z,55.49
2023-03-22T16:38:37.326Z,54.26
2023-03-22T16:42:37.837Z,49.29
2023-03-22T16:46:37.133Z,53.84
2023-03-22T16:50:36.895Z,54.07
2023-03-22T16:54:39.001Z,55.77
2023-03-22T16:58:36.907Z,50.34
2023-03-22T17:02:36.853Z,52.75
2023-03-22T17:06:36.825Z,56.24
2023-03-22T17:10:36.799Z,56.23
2023-03-22T17:14:36.797Z,58.78
2023-03-22T17:18:36.706Z,54.86
2023-03-22T17:22:36.696Z,62.12
2023-03-22T17:26:36.626Z,62.41
2023-03-22T17:30:36.707Z,59.95
2023-03-22T17:34:36.556Z,56.23
2023-03-22T17:42:36.524Z,59.05
2023-03-22T17:47:15.194Z,64.78
2023-03-22T17:50:37.425Z,59.01
2023-03-22T17:58:41.722Z,61.14
2023-03-22T18:02:36.581Z,57.83
2023-03-22T18:06:36.723Z,55.55
2023-03-22T18:10:37.857Z,56.84
2023-03-22T18:14:41.123Z,55.89
2023-03-22T18:18:36.889Z,55.45
2023-03-22T18:22:36.843Z,54.98
2023-03-22T18:30:36.993Z,59.54
2023-03-22T18:34:36.760Z,57.38
2023-03-22T18:39:06.332Z,53.81
2023-03-22T18:42:48.167Z,55.64
2023-03-22T18:46:37.932Z,54.95
2023-03-22T18:50:36.769Z,55.81
2023-03-22T18:54:39.052Z,51.78
2023-03-22T18:58:36.662Z,53.91
2023-03-22T19:02:39.838Z,46.93
2023-03-22T19:06:36.613Z,49.97
2023-03-22T19:10:36.940Z,51.16
2023-03-22T19:18:37.957Z,48.78
2023-03-22T19:22:36.478Z,42.18
2023-03-22T19:26:36.401Z,44.87
2023-03-22T19:30:36.408Z,39.82
2023-03-22T19:34:36.556Z,40.13
2023-03-22T19:38:36.669Z,43.89
2023-03-22T19:42:36.980Z,35.59
2023-03-22T19:46:37.084Z,38.23
2023-03-22T19:50:37.249Z,37.19
2023-03-22T19:54:45.259Z,38.66
2023-03-22T19:58:38.178Z,39.32
2023-03-22T20:02:37.170Z,39.11
2023-03-22T20:06:37.246Z,36.72
2023-03-22T20:10:37.116Z,34.04
2023-03-22T20:14:37.118Z,38.99
2023-03-22T20:18:37.030Z,36.98
2023-03-22T20:22:37.113Z,35.07
2023-03-22T20:26:37.010Z,30.22
2023-03-22T20:30:36.989Z,29.57
2023-03-22T20:34:36.899Z,32.26
2023-03-22T20:38:36.928Z,31.18
2023-03-22T20:42:36.896Z,36.14
2023-03-22T20:46:36.802Z,32.47
2023-03-22T20:50:36.892Z,34.94
2023-03-22T20:54:36.746Z,31.61
2023-03-22T20:58:36.987Z,32.23
2023-03-22T21:02:36.694Z,26.27
2023-03-22T21:06:36.661Z,31.72
2023-03-22T21:10:36.602Z,27.64
2023-03-22T21:14:36.569Z,28.87
2023-03-22T21:18:36.544Z,28.97
2023-03-22T21:22:36.519Z,27.31
2023-03-22T21:26:36.489Z,28.63
2023-03-22T21:30:36.460Z,28.71
2023-03-22T21:34:36.474Z,27.64
2023-03-22T21:38:36.406Z,28.17
2023-03-22T21:42:37.008Z,29.72
2023-03-22T21:46:36.494Z,29.11
2023-03-22T21:50:36.465Z,29.44
2023-03-22T21:54:37.014Z,29.96
2023-03-22T21:58:36.376Z,28.80
2023-03-22T22:02:36.748Z,30.95
2023-03-22T22:06:36.362Z,34.88
2023-03-22T22:10:36.389Z,35.00
2023-03-22T22:14:36.346Z,29.48
2023-03-22T22:18:36.180Z,31.13
2023-03-22T22:22:36.263Z,31.18
2023-03-22T22:26:36.381Z,30.28
2023-03-22T22:30:36.460Z,26.99
2023-03-22T22:34:37.048Z,34.09
2023-03-22T22:38:36.601Z,31.83
2023-03-22T22:42:37.026Z,31.78
2023-03-22T22:46:37.002Z,28.53
2023-03-22T22:50:36.887Z,35.15
2023-03-22T22:54:36.989Z,28.38
2023-03-22T22:58:37.128Z,28.47
2023-03-22T23:02:37.262Z,30.53
2023-03-22T23:06:37.324Z,26.92
2023-03-22T23:10:37.399Z,32.73
2023-03-22T23:14:37.519Z,31.07
2023-03-22T23:18:38.994Z,33.42
2023-03-22T23:22:38.039Z,30.64
2023-03-22T23:26:38.587Z,41.99
2023-03-22T23:30:37.657Z,40.55
2023-03-22T23:34:37.748Z,37.15
2023-03-22T23:38:37.788Z,46.80
2023-03-22T23:42:37.964Z,53.51
2023-03-22T23:46:38.113Z,53.35
2023-03-22T23:50:38.086Z,54.37
2023-03-22T23:54:38.022Z,61.61
2023-03-22T23:58:37.995Z,55.58
